Time;durP1;ratioP1;P1;durP2;ratioP2;P2;SDS_P1;SDS_P2;PMS_P1;PMS_P2;Temp;Humidity;BMP_temperature;BMP_pressure;BME280_temperature;BME280_humidity;BME280_pressure;Samples;Min_cycle;Max_cycle;Signal;HPM_P1;HPM_P2
2023/08/29 00:02:19;;;;;;;;;;;27.90;44.60;;;;;;4995430;28;87953;-52
2023/08/29 00:04:45;;;;;;;;;;;27.90;44.60;;;;;;4991104;28;88317;-53
2023/08/29 00:07:10;;;;;;;;;;;27.90;44.60;;;;;;4995188;28;88738;-52
2023/08/29 00:09:36;;;;;;;;;;;27.90;44.60;;;;;;4995327;28;88967;-52
2023/08/29 00:12:03;;;;;;;;;;;27.90;44.60;;;;;;4999598;28;91625;-53
2023/08/29 00:14:29;;;;;;;;;;;27.80;44.50;;;;;;4997575;28;87164;-53
2023/08/29 00:16:54;;;;;;;;;;;27.80;44.50;;;;;;4993340;28;89277;-55
2023/08/29 00:19:21;;;;;;;;;;;27.90;44.60;;;;;;4993118;28;87155;-50
2023/08/29 00:21:47;;;;;;;;;;;27.80;44.60;;;;;;4994710;28;88045;-50
2023/08/29 00:24:13;;;;;;;;;;;27.80;44.50;;;;;;4994609;28;89817;-51
2023/08/29 00:26:38;;;;;;;;;;;27.80;44.50;;;;;;4992666;28;87188;-49
2023/08/29 00:29:04;;;;;;;;;;;27.80;44.60;;;;;;4994204;28;87868;-56
2023/08/29 00:31:30;;;;;;;;;;;27.80;44.50;;;;;;4994950;28;87547;-52
2023/08/29 00:33:55;;;;;;;;;;;27.70;44.50;;;;;;4996360;28;86457;-51
2023/08/29 00:36:21;;;;;;;;;;;27.70;44.50;;;;;;4993342;28;89402;-50
2023/08/29 00:38:46;;;;;;;;;;;27.70;43.90;;;;;;4992945;28;87133;-52
2023/08/29 00:41:12;;;;;;;;;;;27.70;44.50;;;;;;4994618;28;87980;-55
2023/08/29 00:43:38;;;;;;;;;;;27.70;44.50;;;;;;4993526;28;87633;-51
2023/08/29 00:46:04;;;;;;;;;;;27.70;44.50;;;;;;4991146;28;87192;-56
2023/08/29 00:48:31;;;;;;;;;;;27.70;44.60;;;;;;4994366;28;87690;-54
2023/08/29 00:50:57;;;;;;;;;;;27.60;44.60;;;;;;4990826;28;87115;-49
2023/08/29 00:53:23;;;;;;;;;;;27.60;44.60;;;;;;4995116;28;87088;-51
2023/08/29 00:55:49;;;;;;;;;;;27.60;44.70;;;;;;4995307;28;87713;-51
2023/08/29 00:58:15;;;;;;;;;;;27.60;44.60;;;;;;4993583;28;86656;-53
2023/08/29 01:00:41;;;;;;;;;;;27.60;44.60;;;;;;4995029;28;87461;-52
2023/08/29 01:03:07;;;;;;;;;;;27.60;44.60;;;;;;4993926;28;87779;-52
2023/08/29 01:05:32;;;;;;;;;;;27.60;44.60;;;;;;4995013;28;88216;-54
2023/08/29 01:07:59;;;;;;;;;;;27.50;44.60;;;;;;4992020;28;88473;-54
2023/08/29 01:10:38;;;;;;;;;;;27.50;44.60;;;;;;4993671;28;87237;-51
2023/08/29 01:13:10;;;;;;;;;;;27.50;44.60;;;;;;4992418;28;87162;-52
2023/08/29 01:15:36;;;;;;;;;;;27.50;44.70;;;;;;4992254;28;88653;-53
2023/08/29 01:18:03;;;;;;;;;;;27.40;44.60;;;;;;4996877;28;88019;-55
2023/08/29 01:20:33;;;;;;;;;;;27.40;44.60;;;;;;4991312;28;87642;-53
2023/08/29 01:23:16;;;;;;;;;;;27.40;44.60;;;;;;4993771;28;87086;-54
2023/08/29 01:25:48;;;;;;;;;;;27.40;44.20;;;;;;4994508;28;87000;-52
2023/08/29 01:28:13;;;;;;;;;;;27.40;44.70;;;;;;4993038;28;88995;-54
2023/08/29 01:30:39;;;;;;;;;;;27.30;44.10;;;;;;4990946;28;89146;-52
2023/08/29 01:33:05;;;;;;;;;;;27.30;44.70;;;;;;4992510;28;87140;-54
2023/08/29 01:35:31;;;;;;;;;;;27.30;44.70;;;;;;4994552;28;87553;-52
2023/08/29 01:37:56;;;;;;;;;;;27.30;44.70;;;;;;4990702;28;88563;-51
2023/08/29 01:40:22;;;;;;;;;;;27.30;44.80;;;;;;4994799;28;87041;-55
2023/08/29 01:42:48;;;;;;;;;;;27.30;44.70;;;;;;4992469;28;87251;-51
2023/08/29 01:45:13;;;;;;;;;;;27.20;44.70;;;;;;4994241;28;87171;-53
2023/08/29 01:47:39;;;;;;;;;;;27.20;44.80;;;;;;4992350;28;87952;-53
2023/08/29 01:50:05;;;;;;;;;;;27.20;44.70;;;;;;4994130;28;89282;-52
2023/08/29 01:52:31;;;;;;;;;;;27.20;44.70;;;;;;4992772;28;87074;-54
2023/08/29 01:54:57;;;;;;;;;;;27.20;44.80;;;;;;4991379;28;87975;-55
2023/08/29 01:57:23;;;;;;;;;;;27.20;44.70;;;;;;4991862;28;88320;-56
2023/08/29 01:59:50;;;;;;;;;;;27.10;44.80;;;;;;4994076;28;87119;-52
2023/08/29 02:02:17;;;;;;;;;;;27.10;44.80;;;;;;4994758;28;87706;-53
2023/08/29 02:04:43;;;;;;;;;;;27.10;44.80;;;;;;4991303;28;87195;-54
2023/08/29 02:07:08;;;;;;;;;;;27.10;44.90;;;;;;5000019;28;88814;-50
2023/08/29 02:09:34;;;;;;;;;;;27.10;44.90;;;;;;4989450;28;88328;-54
2023/08/29 02:11:59;;;;;;;;;;;27.10;44.80;;;;;;4994040;28;86302;-53
2023/08/29 02:14:25;;;;;;;;;;;27.10;45.00;;;;;;4991446;28;87064;-51
2023/08/29 02:16:50;;;;;;;;;;;27.00;44.90;;;;;;4992474;28;88413;-52
2023/08/29 02:19:16;;;;;;;;;;;27.00;44.80;;;;;;4992533;28;88091;-52
2023/08/29 02:21:41;;;;;;;;;;;27.00;44.80;;;;;;4996311;28;89029;-54
2023/08/29 02:24:07;;;;;;;;;;;27.00;44.90;;;;;;4993351;28;87008;-51
2023/08/29 02:26:32;;;;;;;;;;;26.90;44.80;;;;;;4991731;28;87583;-53
2023/08/29 02:28:58;;;;;;;;;;;26.90;44.90;;;;;;4993253;28;88807;-53
2023/08/29 02:31:23;;;;;;;;;;;26.90;44.90;;;;;;4991786;28;87137;-50
2023/08/29 02:33:49;;;;;;;;;;;26.90;44.90;;;;;;4991961;28;87489;-52
2023/08/29 02:36:14;;;;;;;;;;;26.90;44.90;;;;;;4991155;28;87554;-52
2023/08/29 02:38:40;;;;;;;;;;;26.90;45.00;;;;;;4994339;28;88034;-52
2023/08/29 02:41:05;;;;;;;;;;;26.90;44.90;;;;;;4993319;28;87590;-55
2023/08/29 02:43:31;;;;;;;;;;;26.90;44.90;;;;;;4992478;28;90124;-49
2023/08/29 02:45:57;;;;;;;;;;;26.90;45.00;;;;;;4992492;28;88509;-50
2023/08/29 02:48:23;;;;;;;;;;;26.90;45.00;;;;;;4992128;28;88329;-50
2023/08/29 02:50:49;;;;;;;;;;;26.80;45.00;;;;;;4990746;28;86965;-55
2023/08/29 02:53:19;;;;;;;;;;;26.80;45.00;;;;;;4991409;28;87729;-51
2023/08/29 02:55:44;;;;;;;;;;;26.80;45.00;;;;;;4990280;28;88238;-53
2023/08/29 02:58:10;;;;;;;;;;;26.80;45.10;;;;;;4993053;28;87101;-52
2023/08/29 03:00:35;;;;;;;;;;;26.70;45.00;;;;;;4992963;28;87867;-52
2023/08/29 03:03:03;;;;;;;;;;;26.70;45.00;;;;;;4989946;28;88232;-51
2023/08/29 03:05:28;;;;;;;;;;;26.70;45.00;;;;;;4995747;28;87116;-50
2023/08/29 03:07:55;;;;;;;;;;;26.70;45.00;;;;;;4989829;28;89534;-51
2023/08/29 03:10:20;;;;;;;;;;;26.70;45.10;;;;;;4989877;28;87389;-51
2023/08/29 03:12:46;;;;;;;;;;;26.60;45.00;;;;;;4992176;28;88657;-53
2023/08/29 03:15:11;;;;;;;;;;;26.60;45.00;;;;;;4992406;28;87566;-50
2023/08/29 03:17:37;;;;;;;;;;;26.60;45.10;;;;;;4990588;28;87237;-52
2023/08/29 03:20:05;;;;;;;;;;;26.60;45.10;;;;;;4993041;28;87791;-50
2023/08/29 03:22:30;;;;;;;;;;;26.60;45.10;;;;;;4991014;28;90075;-55
2023/08/29 03:24:56;;;;;;;;;;;26.60;45.10;;;;;;4993200;28;86473;-53
2023/08/29 03:27:21;;;;;;;;;;;26.60;45.10;;;;;;4993987;28;87325;-53
2023/08/29 03:29:50;;;;;;;;;;;26.50;45.00;;;;;;4990199;28;87123;-53
2023/08/29 03:32:15;;;;;;;;;;;26.50;45.10;;;;;;4990014;28;88040;-52
2023/08/29 03:34:41;;;;;;;;;;;26.50;45.10;;;;;;4992879;28;88211;-51
2023/08/29 03:37:07;;;;;;;;;;;26.50;45.20;;;;;;4990165;28;87224;-52
2023/08/29 03:39:33;;;;;;;;;;;26.40;45.20;;;;;;4990062;28;87910;-51
2023/08/29 03:41:58;;;;;;;;;;;26.50;45.20;;;;;;4990965;28;87403;-54
2023/08/29 03:44:24;;;;;;;;;;;26.50;45.30;;;;;;4992818;28;87405;-53
2023/08/29 03:46:49;;;;;;;;;;;26.40;45.20;;;;;;4993182;28;87728;-50
2023/08/29 03:49:15;;;;;;;;;;;26.40;45.80;;;;;;4994082;28;88306;-52
2023/08/29 03:51:40;;;;;;;;;;;26.40;45.20;;;;;;4998970;28;87091;-54
2023/08/29 03:54:06;;;;;;;;;;;26.40;45.20;;;;;;4993635;28;88536;-55
2023/08/29 03:56:33;;;;;;;;;;;26.40;45.30;;;;;;4995586;28;88059;-54
2023/08/29 03:59:01;;;;;;;;;;;26.40;45.30;;;;;;4992093;28;91056;-54
2023/08/29 04:01:27;;;;;;;;;;;26.40;45.30;;;;;;4990292;28;88271;-54
2023/08/29 04:03:52;;;;;;;;;;;26.30;45.30;;;;;;4993500;28;87221;-54
2023/08/29 04:06:21;;;;;;;;;;;26.30;45.30;;;;;;4992902;28;87161;-53
2023/08/29 04:08:46;;;;;;;;;;;26.30;45.40;;;;;;4990121;28;88217;-51
2023/08/29 04:11:12;;;;;;;;;;;26.30;45.40;;;;;;4995082;28;87228;-54
2023/08/29 04:13:37;;;;;;;;;;;26.30;45.40;;;;;;4993408;28;87828;-52
2023/08/29 04:16:03;;;;;;;;;;;26.20;45.40;;;;;;4997409;28;87215;-52
2023/08/29 04:18:32;;;;;;;;;;;26.20;45.40;;;;;;4993234;28;88061;-54
2023/08/29 04:20:58;;;;;;;;;;;26.20;45.50;;;;;;4990637;28;88887;-51
2023/08/29 04:23:24;;;;;;;;;;;26.20;45.00;;;;;;4998262;28;87211;-52
2023/08/29 04:25:49;;;;;;;;;;;26.20;45.50;;;;;;4994159;28;88130;-52
2023/08/29 04:28:20;;;;;;;;;;;26.20;45.50;;;;;;4987517;28;88216;-50
2023/08/29 04:30:45;;;;;;;;;;;26.10;45.60;;;;;;4997840;28;87048;-54
2023/08/29 04:33:11;;;;;;;;;;;26.10;45.50;;;;;;4993297;28;88881;-53
2023/08/29 04:35:36;;;;;;;;;;;26.10;45.60;;;;;;4992402;28;87289;-56
2023/08/29 04:38:02;;;;;;;;;;;26.10;45.60;;;;;;4992412;28;87693;-49
2023/08/29 04:40:28;;;;;;;;;;;26.10;45.60;;;;;;4990404;28;88830;-50
2023/08/29 04:42:53;;;;;;;;;;;26.10;45.60;;;;;;4994795;28;87202;-53
2023/08/29 04:45:19;;;;;;;;;;;26.10;45.60;;;;;;4989562;28;88473;-54
2023/08/29 04:47:45;;;;;;;;;;;26.10;45.60;;;;;;4995325;28;88009;-51
2023/08/29 04:50:10;;;;;;;;;;;26.00;45.50;;;;;;4992906;28;87339;-52
2023/08/29 04:52:36;;;;;;;;;;;26.00;45.70;;;;;;4993252;28;88048;-50
2023/08/29 04:55:02;;;;;;;;;;;26.00;45.70;;;;;;4990104;28;87237;-53
2023/08/29 04:57:27;;;;;;;;;;;26.00;45.70;;;;;;4991019;28;87979;-54
2023/08/29 04:59:53;;;;;;;;;;;26.00;45.80;;;;;;4992876;28;88551;-53
2023/08/29 05:02:18;;;;;;;;;;;26.00;45.80;;;;;;4993832;28;86390;-52
2023/08/29 05:04:45;;;;;;;;;;;26.00;45.70;;;;;;4994636;28;87127;-49
2023/08/29 05:07:11;;;;;;;;;;;26.00;45.80;;;;;;4995013;28;88523;-53
2023/08/29 05:09:36;;;;;;;;;;;26.00;45.70;;;;;;4993412;28;89064;-55
2023/08/29 05:12:02;;;;;;;;;;;26.00;45.80;;;;;;4993259;28;88674;-52
2023/08/29 05:14:28;;;;;;;;;;;26.00;46.50;;;;;;4991644;28;89658;-49
2023/08/29 05:16:53;;;;;;;;;;;25.90;45.90;;;;;;4992629;28;87913;-52
2023/08/29 05:19:19;;;;;;;;;;;25.90;45.80;;;;;;4993234;28;88320;-52
2023/08/29 05:21:44;;;;;;;;;;;25.90;45.90;;;;;;4988898;28;87269;-53
2023/08/29 05:24:11;;;;;;;;;;;25.90;45.90;;;;;;4995643;28;87103;-50
2023/08/29 05:26:36;;;;;;;;;;;25.90;46.00;;;;;;4993931;28;87551;-51
2023/08/29 05:29:02;;;;;;;;;;;25.90;46.00;;;;;;4991492;28;88365;-50
2023/08/29 05:31:28;;;;;;;;;;;25.90;46.00;;;;;;4991145;28;87618;-53
2023/08/29 05:33:54;;;;;;;;;;;25.90;46.10;;;;;;4990401;28;90753;-51
2023/08/29 05:36:19;;;;;;;;;;;25.80;46.00;;;;;;4997316;28;87485;-52
2023/08/29 05:38:45;;;;;;;;;;;25.90;46.10;;;;;;4995095;28;89035;-51
2023/08/29 05:41:10;;;;;;;;;;;25.80;46.10;;;;;;4987442;28;87259;-51
2023/08/29 05:43:36;;;;;;;;;;;25.80;46.10;;;;;;4990973;28;87623;-55
2023/08/29 05:46:02;;;;;;;;;;;25.80;46.10;;;;;;4992098;28;88409;-54
2023/08/29 05:48:28;;;;;;;;;;;25.80;46.10;;;;;;4990470;28;87389;-53
2023/08/29 05:50:53;;;;;;;;;;;25.80;46.20;;;;;;4993814;28;89312;-51
2023/08/29 05:53:19;;;;;;;;;;;25.80;46.20;;;;;;4989675;28;89425;-49
2023/08/29 05:55:45;;;;;;;;;;;25.80;46.20;;;;;;4991397;28;87121;-49
2023/08/29 05:58:11;;;;;;;;;;;25.80;46.20;;;;;;4992096;28;89223;-51
2023/08/29 06:00:37;;;;;;;;;;;25.80;46.20;;;;;;4991105;28;87190;-51
2023/08/29 06:03:04;;;;;;;;;;;25.80;46.20;;;;;;4991629;28;88893;-53
2023/08/29 06:05:31;;;;;;;;;;;25.80;46.90;;;;;;4991798;28;89513;-53
2023/08/29 06:08:00;;;;;;;;;;;25.80;46.20;;;;;;4991911;28;87961;-53
2023/08/29 06:10:26;;;;;;;;;;;25.80;46.30;;;;;;4990698;28;89094;-50
2023/08/29 06:12:51;;;;;;;;;;;25.80;46.30;;;;;;4991844;28;88312;-49
2023/08/29 06:15:17;;;;;;;;;;;25.80;47.00;;;;;;4992112;28;86387;-53
2023/08/29 06:17:42;;;;;;;;;;;25.70;46.30;;;;;;4988653;28;89101;-52
2023/08/29 06:20:08;;;;;;;;;;;25.80;46.40;;;;;;4993858;28;87856;-49
2023/08/29 06:22:34;;;;;;;;;;;25.70;46.30;;;;;;4994531;28;89089;-53
2023/08/29 06:24:59;;;;;;;;;;;25.70;46.40;;;;;;4992816;28;88261;-54
2023/08/29 06:27:25;;;;;;;;;;;25.70;46.40;;;;;;4990444;28;87151;-53
2023/08/29 06:29:50;;;;;;;;;;;25.80;46.40;;;;;;4989861;28;88965;-52
2023/08/29 06:32:16;;;;;;;;;;;25.70;46.40;;;;;;4992823;28;88696;-49
2023/08/29 06:34:41;;;;;;;;;;;25.80;46.40;;;;;;4994127;28;88261;-50
2023/08/29 06:37:07;;;;;;;;;;;25.80;46.50;;;;;;4987836;28;87857;-51
2023/08/29 06:39:32;;;;;;;;;;;25.70;46.50;;;;;;4995118;28;87811;-48
2023/08/29 06:41:58;;;;;;;;;;;25.70;46.50;;;;;;4993846;28;90169;-51
2023/08/29 06:44:23;;;;;;;;;;;25.80;46.60;;;;;;4990398;28;88888;-51
2023/08/29 06:46:49;;;;;;;;;;;25.70;46.50;;;;;;4988645;28;88228;-51
2023/08/29 06:49:15;;;;;;;;;;;25.70;46.50;;;;;;4991141;28;88734;-47
2023/08/29 06:51:41;;;;;;;;;;;25.70;46.50;;;;;;4988570;28;88286;-54
2023/08/29 06:54:06;;;;;;;;;;;25.70;46.50;;;;;;4992596;28;87162;-54
2023/08/29 06:56:32;;;;;;;;;;;25.70;46.50;;;;;;4988501;28;87600;-48
2023/08/29 06:58:58;;;;;;;;;;;25.80;46.60;;;;;;4990882;28;87735;-52
2023/08/29 07:01:24;;;;;;;;;;;25.80;46.60;;;;;;4993968;28;87225;-50
2023/08/29 07:03:49;;;;;;;;;;;25.80;46.60;;;;;;4990740;28;87755;-55
2023/08/29 07:06:15;;;;;;;;;;;25.80;46.60;;;;;;4989412;28;87105;-50
2023/08/29 07:08:40;;;;;;;;;;;25.80;46.60;;;;;;4994833;28;88292;-52
2023/08/29 07:11:07;;;;;;;;;;;25.80;46.60;;;;;;4987622;28;90409;-53
2023/08/29 07:13:32;;;;;;;;;;;25.80;46.60;;;;;;4988572;28;87915;-48
2023/08/29 07:15:58;;;;;;;;;;;25.80;46.60;;;;;;4993331;28;88252;-49
2023/08/29 07:18:24;;;;;;;;;;;25.80;46.70;;;;;;4991065;28;87936;-52
2023/08/29 07:20:49;;;;;;;;;;;25.70;46.60;;;;;;4994085;28;87712;-49
2023/08/29 07:23:15;;;;;;;;;;;25.80;46.60;;;;;;4995210;28;87450;-54
2023/08/29 07:25:44;;;;;;;;;;;25.80;46.70;;;;;;4994031;28;88071;-49
2023/08/29 07:28:13;;;;;;;;;;;25.80;46.70;;;;;;4994064;28;86696;-53
2023/08/29 07:30:46;;;;;;;;;;;25.80;46.70;;;;;;4992919;28;88040;-53
2023/08/29 07:33:12;;;;;;;;;;;25.80;46.70;;;;;;4992513;28;87264;-53
2023/08/29 07:35:39;;;;;;;;;;;25.80;46.70;;;;;;4994798;28;87937;-50
2023/08/29 07:38:04;;;;;;;;;;;25.80;46.70;;;;;;4992592;28;88426;-53
2023/08/29 07:40:30;;;;;;;;;;;25.80;46.70;;;;;;4996420;28;88452;-51
2023/08/29 07:42:55;;;;;;;;;;;25.80;46.70;;;;;;4992837;28;87082;-50
2023/08/29 07:45:21;;;;;;;;;;;25.70;46.80;;;;;;4999190;28;88503;-51
2023/08/29 07:47:48;;;;;;;;;;;25.80;46.80;;;;;;4991836;28;88744;-51
2023/08/29 07:50:13;;;;;;;;;;;25.80;46.80;;;;;;4989984;28;88195;-50
2023/08/29 07:52:39;;;;;;;;;;;25.80;46.90;;;;;;4996298;28;86404;-53
2023/08/29 07:55:05;;;;;;;;;;;25.80;46.90;;;;;;4993276;28;88853;-51
2023/08/29 07:57:30;;;;;;;;;;;25.80;46.90;;;;;;4991193;28;88837;-50
2023/08/29 07:59:56;;;;;;;;;;;25.80;46.90;;;;;;4993068;28;88297;-52
2023/08/29 08:02:22;;;;;;;;;;;25.80;46.90;;;;;;4993290;28;87667;-54
2023/08/29 08:04:47;;;;;;;;;;;25.80;46.90;;;;;;4994518;28;88308;-52
2023/08/29 08:07:13;;;;;;;;;;;25.80;46.90;;;;;;4996842;28;87139;-51
2023/08/29 08:09:38;;;;;;;;;;;25.80;46.90;;;;;;4994801;28;88382;-52
2023/08/29 08:12:04;;;;;;;;;;;25.80;46.90;;;;;;4992795;28;87321;-49
2023/08/29 08:14:29;;;;;;;;;;;25.80;46.90;;;;;;4999106;28;90866;-50
2023/08/29 08:16:55;;;;;;;;;;;25.90;47.00;;;;;;4994761;28;87578;-52
2023/08/29 08:19:21;;;;;;;;;;;25.80;47.00;;;;;;4996782;28;87056;-48
2023/08/29 08:21:46;;;;;;;;;;;25.80;47.00;;;;;;4993350;28;87374;-50
2023/08/29 08:24:11;;;;;;;;;;;25.80;47.60;;;;;;4992446;28;88291;-50
2023/08/29 08:26:37;;;;;;;;;;;25.90;47.00;;;;;;4992010;28;87393;-51
2023/08/29 08:29:04;;;;;;;;;;;25.90;47.10;;;;;;4994327;28;87633;-53
2023/08/29 08:31:30;;;;;;;;;;;25.90;47.00;;;;;;4996403;28;87739;-52
2023/08/29 08:33:56;;;;;;;;;;;25.90;47.10;;;;;;4994889;28;87266;-52
2023/08/29 08:36:21;;;;;;;;;;;25.80;47.00;;;;;;4993113;28;88237;-50
2023/08/29 08:38:47;;;;;;;;;;;25.80;47.10;;;;;;4992765;28;87167;-54
2023/08/29 08:41:14;;;;;;;;;;;25.80;47.10;;;;;;4994632;28;86992;-51
2023/08/29 08:43:40;;;;;;;;;;;25.90;47.20;;;;;;4991661;28;88181;-50
2023/08/29 08:46:07;;;;;;;;;;;25.80;47.20;;;;;;4992974;28;87226;-50
2023/08/29 08:48:33;;;;;;;;;;;25.80;47.10;;;;;;4995881;28;88073;-54
2023/08/29 08:50:58;;;;;;;;;;;25.90;47.30;;;;;;4998948;28;87233;-49
2023/08/29 08:53:25;;;;;;;;;;;25.90;47.30;;;;;;4995661;28;87203;-53
2023/08/29 08:55:50;;;;;;;;;;;25.80;47.20;;;;;;4993056;28;88371;-54
2023/08/29 08:58:16;;;;;;;;;;;25.80;47.20;;;;;;4991913;28;87731;-52
2023/08/29 09:00:42;;;;;;;;;;;25.80;47.20;;;;;;4995147;28;87377;-53
2023/08/29 09:03:07;;;;;;;;;;;25.90;47.30;;;;;;4990819;28;88187;-52
2023/08/29 09:05:33;;;;;;;;;;;25.80;47.20;;;;;;4998855;28;86453;-52
2023/08/29 09:07:59;;;;;;;;;;;25.90;47.20;;;;;;4992967;28;87451;-52
2023/08/29 09:10:24;;;;;;;;;;;25.90;47.30;;;;;;4997539;28;88661;-54
2023/08/29 09:12:52;;;;;;;;;;;25.80;47.20;;;;;;4986632;28;88074;-48
2023/08/29 09:15:19;;;;;;;;;;;25.90;47.90;;;;;;4991348;28;89179;-53
2023/08/29 09:17:53;;;;;;;;;;;25.90;47.30;;;;;;4992250;28;87147;-53
2023/08/29 09:20:20;;;;;;;;;;;25.90;47.20;;;;;;4997276;28;88730;-48
2023/08/29 09:22:46;;;;;;;;;;;25.90;47.30;;;;;;4997583;28;88139;-54
2023/08/29 09:25:11;;;;;;;;;;;25.90;47.30;;;;;;4992257;28;87100;-52
2023/08/29 09:27:41;;;;;;;;;;;25.80;47.20;;;;;;4996151;28;87564;-52
2023/08/29 09:30:07;;;;;;;;;;;25.90;47.20;;;;;;4994826;28;87682;-56
2023/08/29 09:32:33;;;;;;;;;;;25.90;47.30;;;;;;4992869;28;87180;-52
2023/08/29 09:34:58;;;;;;;;;;;25.90;47.20;;;;;;4993669;28;87375;-50
2023/08/29 09:37:24;;;;;;;;;;;25.90;47.20;;;;;;4992649;28;88073;-54
2023/08/29 09:39:52;;;;;;;;;;;25.90;47.20;;;;;;4992044;28;88800;-53
2023/08/29 09:42:19;;;;;;;;;;;25.90;47.20;;;;;;4990721;28;90972;-55
2023/08/29 09:44:48;;;;;;;;;;;25.90;47.20;;;;;;4991152;28;87114;-54
2023/08/29 09:47:21;;;;;;;;;;;25.90;47.20;;;;;;4992361;28;88029;-52
2023/08/29 09:49:47;;;;;;;;;;;25.90;47.20;;;;;;4990820;28;88465;-51
2023/08/29 09:52:13;;;;;;;;;;;25.90;47.20;;;;;;4993012;28;87147;-49
2023/08/29 09:54:47;;;;;;;;;;;25.90;47.10;;;;;;4996071;28;87719;-54
2023/08/29 09:57:13;;;;;;;;;;;25.90;47.10;;;;;;4993089;28;88115;-47
2023/08/29 09:59:39;;;;;;;;;;;26.00;47.20;;;;;;4992115;28;87275;-56
2023/08/29 10:02:06;;;;;;;;;;;26.00;47.20;;;;;;4991221;28;89539;-51
2023/08/29 10:04:34;;;;;;;;;;;26.00;47.20;;;;;;4995803;28;87174;-52
2023/08/29 10:07:00;;;;;;;;;;;26.00;47.20;;;;;;4993229;28;88153;-49
2023/08/29 10:09:27;;;;;;;;;;;26.00;47.10;;;;;;4991059;28;88202;-51
2023/08/29 10:11:54;;;;;;;;;;;26.00;47.10;;;;;;4989330;28;87150;-52
2023/08/29 10:14:22;;;;;;;;;;;26.00;47.10;;;;;;4993362;28;88238;-52
2023/08/29 10:16:48;;;;;;;;;;;26.00;47.10;;;;;;4994457;28;87677;-49
2023/08/29 10:19:15;;;;;;;;;;;26.00;47.20;;;;;;4991020;28;86639;-49
2023/08/29 10:21:42;;;;;;;;;;;26.00;47.10;;;;;;4993077;28;88535;-55
2023/08/29 10:24:09;;;;;;;;;;;26.00;47.10;;;;;;4991684;28;87216;-52
2023/08/29 10:26:36;;;;;;;;;;;26.00;47.10;;;;;;4989450;28;88103;-53
2023/08/29 10:29:03;;;;;;;;;;;26.00;47.10;;;;;;4989410;28;88326;-51
2023/08/29 10:31:30;;;;;;;;;;;26.00;47.10;;;;;;4992643;28;88189;-48
2023/08/29 10:33:56;;;;;;;;;;;26.00;47.00;;;;;;4988237;28;87868;-50
2023/08/29 10:36:23;;;;;;;;;;;26.10;47.10;;;;;;4989041;28;90011;-52
2023/08/29 10:38:49;;;;;;;;;;;26.10;47.10;;;;;;4993219;28;87108;-51
2023/08/29 10:41:15;;;;;;;;;;;26.10;47.10;;;;;;4993736;28;87769;-50
2023/08/29 10:43:41;;;;;;;;;;;26.10;47.10;;;;;;4990228;28;87987;-56
2023/08/29 10:46:10;;;;;;;;;;;26.10;47.00;;;;;;4992524;28;88161;-49
2023/08/29 10:48:44;;;;;;;;;;;26.10;47.00;;;;;;4991122;28;88337;-55
2023/08/29 10:51:10;;;;;;;;;;;26.20;47.10;;;;;;4988974;28;88437;-52
2023/08/29 10:54:05;;;;;;;;;;;26.20;47.10;;;;;;4994282;28;88705;-49
2023/08/29 10:56:42;;;;;;;;;;;26.20;47.10;;;;;;4994685;28;89458;-51
2023/08/29 10:59:26;;;;;;;;;;;26.20;47.10;;;;;;5000028;28;87093;-50
2023/08/29 11:01:52;;;;;;;;;;;26.20;47.00;;;;;;4994514;28;89128;-46
2023/08/29 11:04:21;;;;;;;;;;;26.20;47.10;;;;;;4995768;28;87098;-49
2023/08/29 11:06:50;;;;;;;;;;;26.20;47.00;;;;;;4995439;28;87726;-52
2023/08/29 11:09:20;;;;;;;;;;;26.20;47.00;;;;;;4995416;28;87437;-50
2023/08/29 11:12:05;;;;;;;;;;;26.20;47.10;;;;;;4994415;28;87218;-52
2023/08/29 11:14:51;;;;;;;;;;;26.30;47.10;;;;;;4995485;28;89099;-51
2023/08/29 11:17:25;;;;;;;;;;;26.30;47.10;;;;;;4995409;28;88320;-48
2023/08/29 11:19:55;;;;;;;;;;;26.30;47.00;;;;;;4990490;28;87853;-52
2023/08/29 11:22:22;;;;;;;;;;;26.30;47.00;;;;;;4994844;28;87763;-50
2023/08/29 11:24:55;;;;;;;;;;;26.30;47.00;;;;;;4993932;28;87189;-51
2023/08/29 11:27:36;;;;;;;;;;;26.30;47.00;;;;;;4997186;28;87504;-48
2023/08/29 11:30:02;;;;;;;;;;;26.30;47.00;;;;;;4991683;28;88134;-50
2023/08/29 11:32:28;;;;;;;;;;;26.30;47.00;;;;;;4993576;28;87365;-50
2023/08/29 11:34:54;;;;;;;;;;;26.30;46.90;;;;;;4996919;28;87347;-51
2023/08/29 11:37:21;;;;;;;;;;;26.40;47.00;;;;;;4993414;28;88720;-50
2023/08/29 11:39:58;;;;;;;;;;;26.40;47.00;;;;;;4990163;28;87213;-50
2023/08/29 11:42:28;;;;;;;;;;;26.40;46.90;;;;;;4994498;28;88789;-50
2023/08/29 11:44:54;;;;;;;;;;;26.40;47.00;;;;;;5001076;28;88867;-49
2023/08/29 11:47:19;;;;;;;;;;;26.40;47.00;;;;;;4991322;28;88959;-52
2023/08/29 11:49:54;;;;;;;;;;;26.40;47.00;;;;;;4991226;28;88138;-48
2023/08/29 11:52:20;;;;;;;;;;;26.40;47.00;;;;;;4993900;28;87164;-51
2023/08/29 11:55:00;;;;;;;;;;;26.40;47.00;;;;;;4993702;28;88900;-51
2023/08/29 11:57:28;;;;;;;;;;;26.40;46.90;;;;;;4993692;28;88264;-52
2023/08/29 11:59:54;;;;;;;;;;;26.40;47.00;;;;;;4993066;28;86609;-47
2023/08/29 12:02:22;;;;;;;;;;;26.40;47.00;;;;;;4993990;28;87173;-53
2023/08/29 12:04:52;;;;;;;;;;;26.40;47.00;;;;;;4988611;28;88151;-52
2023/08/29 12:07:18;;;;;;;;;;;26.40;47.00;;;;;;4997660;28;88151;-50
2023/08/29 12:09:44;;;;;;;;;;;26.40;47.00;;;;;;4992493;28;88248;-55
2023/08/29 12:12:28;;;;;;;;;;;26.40;47.00;;;;;;4998003;28;87111;-50
2023/08/29 12:14:53;;;;;;;;;;;26.40;46.90;;;;;;4991894;28;88969;-52
2023/08/29 12:17:19;;;;;;;;;;;26.50;47.00;;;;;;4994310;28;87951;-54
2023/08/29 12:19:46;;;;;;;;;;;26.50;47.00;;;;;;5000181;28;87260;-55
2023/08/29 12:22:11;;;;;;;;;;;26.50;47.00;;;;;;4992099;28;88029;-51
2023/08/29 12:24:37;;;;;;;;;;;26.50;47.10;;;;;;4994086;28;87617;-54
2023/08/29 12:27:04;;;;;;;;;;;26.50;47.00;;;;;;4996968;28;87137;-49
2023/08/29 12:29:29;;;;;;;;;;;26.50;47.00;;;;;;4995541;28;89118;-51
2023/08/29 12:31:57;;;;;;;;;;;26.50;47.10;;;;;;4991567;28;89862;-53
2023/08/29 12:34:22;;;;;;;;;;;26.50;47.10;;;;;;4991521;28;88548;-49
2023/08/29 12:36:48;;;;;;;;;;;26.60;47.10;;;;;;4993837;28;88116;-47
2023/08/29 12:39:13;;;;;;;;;;;26.60;47.10;;;;;;4994976;28;87048;-54
2023/08/29 12:41:39;;;;;;;;;;;26.60;47.10;;;;;;4993736;28;87831;-53
2023/08/29 12:44:06;;;;;;;;;;;26.60;47.10;;;;;;4991427;28;88377;-53
2023/08/29 12:46:32;;;;;;;;;;;26.60;47.00;;;;;;4995175;28;87175;-48
2023/08/29 12:48:58;;;;;;;;;;;26.60;47.00;;;;;;4992398;28;87493;-50
2023/08/29 12:51:23;;;;;;;;;;;26.70;47.10;;;;;;4991918;28;87329;-51
2023/08/29 12:53:49;;;;;;;;;;;26.70;47.10;;;;;;4992492;28;87099;-50
2023/08/29 12:56:15;;;;;;;;;;;26.70;47.00;;;;;;4992595;28;89567;-53
2023/08/29 12:58:41;;;;;;;;;;;26.80;47.10;;;;;;4991235;28;87216;-51
2023/08/29 13:01:07;;;;;;;;;;;26.80;47.10;;;;;;4991945;28;88954;-48
2023/08/29 13:03:33;;;;;;;;;;;26.80;47.10;;;;;;4991101;28;88440;-53
2023/08/29 13:05:58;;;;;;;;;;;26.80;47.20;;;;;;4992902;28;86978;-51
2023/08/29 13:08:24;;;;;;;;;;;26.80;47.20;;;;;;4995528;28;87121;-53
2023/08/29 13:10:49;;;;;;;;;;;26.80;47.20;;;;;;4988433;28;87825;-52
2023/08/29 13:13:15;;;;;;;;;;;26.80;47.20;;;;;;4992257;28;87679;-51
2023/08/29 13:15:40;;;;;;;;;;;26.80;47.30;;;;;;4994514;28;88571;-56
2023/08/29 13:18:06;;;;;;;;;;;26.90;47.30;;;;;;4989155;28;87115;-52
2023/08/29 13:20:33;;;;;;;;;;;26.90;47.40;;;;;;4990333;28;88492;-49
2023/08/29 13:23:00;;;;;;;;;;;26.90;47.30;;;;;;4993697;28;88152;-51
2023/08/29 13:25:26;;;;;;;;;;;26.90;47.30;;;;;;4993473;28;87117;-54
2023/08/29 13:27:52;;;;;;;;;;;26.90;47.40;;;;;;4994013;28;87952;-54
2023/08/29 13:30:17;;;;;;;;;;;27.00;47.40;;;;;;4989381;28;88121;-49
2023/08/29 13:32:43;;;;;;;;;;;27.00;47.40;;;;;;4996101;28;87167;-53
2023/08/29 13:35:10;;;;;;;;;;;27.00;47.40;;;;;;4994132;28;89139;-50
2023/08/29 13:37:36;;;;;;;;;;;27.00;47.50;;;;;;4991467;28;87175;-50
2023/08/29 13:40:05;;;;;;;;;;;27.00;47.40;;;;;;4990737;28;87336;-52
2023/08/29 13:42:30;;;;;;;;;;;27.00;47.40;;;;;;4994964;28;88165;-52
2023/08/29 13:44:58;;;;;;;;;;;27.00;47.50;;;;;;4990008;28;88989;-51
2023/08/29 13:47:24;;;;;;;;;;;27.10;47.50;;;;;;4988330;28;89982;-52
2023/08/29 13:49:51;;;;;;;;;;;27.10;47.50;;;;;;4993801;28;87327;-47
2023/08/29 13:52:16;;;;;;;;;;;27.10;47.50;;;;;;4995179;28;87103;-53
2023/08/29 13:54:42;;;;;;;;;;;27.10;47.60;;;;;;4993331;28;87640;-48
2023/08/29 13:57:07;;;;;;;;;;;27.10;47.60;;;;;;4989849;28;87578;-53
2023/08/29 13:59:33;;;;;;;;;;;27.10;47.60;;;;;;4994302;28;87633;-49
2023/08/29 14:01:58;;;;;;;;;;;27.20;47.60;;;;;;4993052;28;87684;-54
2023/08/29 14:04:24;;;;;;;;;;;27.10;47.60;;;;;;4990054;28;87509;-56
2023/08/29 14:06:51;;;;;;;;;;;27.10;47.60;;;;;;4990593;28;87109;-55
2023/08/29 14:09:16;;;;;;;;;;;27.20;47.70;;;;;;4989563;28;89035;-50
2023/08/29 14:11:42;;;;;;;;;;;27.20;47.60;;;;;;4993598;28;87587;-53
2023/08/29 14:14:08;;;;;;;;;;;27.20;47.70;;;;;;4992279;28;88733;-52